createdAt,value
2019-06-08T00:02:39.978Z,13.22
2019-06-08T00:05:31.104Z,13.38
2019-06-08T00:08:17.055Z,13.40
2019-06-08T00:11:03.106Z,14.15
2019-06-08T00:13:44.169Z,13.83
2019-06-08T00:16:17.448Z,13.58
2019-06-08T00:18:58.980Z,15.23
2019-06-08T00:21:34.389Z,13.40
2019-06-08T00:24:05.570Z,13.83
2019-06-08T00:26:37.901Z,14.87
2019-06-08T00:29:09.334Z,14.90
2019-06-08T00:31:40.259Z,14.30
2019-06-08T00:34:11.180Z,14.28
2019-06-08T00:36:42.236Z,15.35
2019-06-08T00:39:14.700Z,14.63
2019-06-08T00:41:45.401Z,15.78
2019-06-08T00:44:17.047Z,16.05
2019-06-08T00:46:47.612Z,14.87
2019-06-08T00:49:18.468Z,14.25
2019-06-08T00:51:49.067Z,14.90
2019-06-08T00:54:19.428Z,14.15
2019-06-08T00:56:49.858Z,14.65
2019-06-08T00:59:20.218Z,15.48
2019-06-08T01:01:51.721Z,14.83
2019-06-08T01:04:22.782Z,15.83
2019-06-08T01:06:53.206Z,15.75
2019-06-08T01:09:24.227Z,13.88
2019-06-08T01:11:54.838Z,14.83
2019-06-08T01:14:26.678Z,15.43
2019-06-08T01:16:57.642Z,13.95
2019-06-08T01:19:29.626Z,16.23
2019-06-08T01:22:00.271Z,15.65
2019-06-08T01:24:30.648Z,15.50
2019-06-08T01:27:02.374Z,14.63
2019-06-08T01:29:32.747Z,14.05
2019-06-08T01:32:03.218Z,13.10
2019-06-08T01:34:33.699Z,14.10
2019-06-08T01:37:04.361Z,14.78
2019-06-08T01:39:34.802Z,16.12
2019-06-08T01:42:05.236Z,16.45
2019-06-08T01:44:36.342Z,16.15
2019-06-08T01:47:06.788Z,18.55
2019-06-08T01:49:37.844Z,16.97
2019-06-08T01:52:08.287Z,16.82
2019-06-08T01:54:38.670Z,16.45
2019-06-08T01:57:09.097Z,17.77
2019-06-08T01:59:39.465Z,18.57
2019-06-08T02:02:09.923Z,18.98
2019-06-08T02:04:40.294Z,17.82
2019-06-08T02:07:10.710Z,17.80
2019-06-08T02:09:41.090Z,17.27
2019-06-08T02:12:11.541Z,16.42
2019-06-08T02:14:41.926Z,17.37
2019-06-08T02:17:12.356Z,19.07
2019-06-08T02:19:43.077Z,20.90
2019-06-08T02:22:14.586Z,19.70
2019-06-08T02:24:45.009Z,19.42
2019-06-08T02:27:15.440Z,18.48
2019-06-08T02:29:45.890Z,18.52
2019-06-08T02:32:16.311Z,19.67
2019-06-08T02:34:46.740Z,19.48
2019-06-08T02:37:17.132Z,19.90
2019-06-08T02:39:47.529Z,20.32
2019-06-08T02:42:17.894Z,19.75
2019-06-08T02:44:48.360Z,21.50
2019-06-08T02:47:18.723Z,20.57
2019-06-08T02:49:49.261Z,20.02
2019-06-08T02:52:19.746Z,20.52
2019-06-08T02:54:51.293Z,22.07
2019-06-08T02:57:23.950Z,21.95
2019-06-08T02:59:55.978Z,20.95
2019-06-08T03:02:29.657Z,20.90
2019-06-08T03:05:03.601Z,20.02
2019-06-08T03:07:36.894Z,21.15
2019-06-08T03:10:08.187Z,20.75
2019-06-08T03:12:42.214Z,20.82
2019-06-08T03:15:13.295Z,20.97
2019-06-08T03:17:43.648Z,21.30
2019-06-08T03:20:14.181Z,20.57
2019-06-08T03:22:44.605Z,20.85
2019-06-08T03:25:15.044Z,19.50
2019-06-08T03:27:45.624Z,18.73
2019-06-08T03:30:18.971Z,19.60
2019-06-08T03:32:55.686Z,20.45
2019-06-08T03:35:20.626Z,19.92
2019-06-08T03:37:51.041Z,20.35
2019-06-08T03:40:22.755Z,20.97
2019-06-08T03:42:53.659Z,19.50
2019-06-08T03:45:25.160Z,20.40
2019-06-08T03:47:55.634Z,20.82
2019-06-08T03:50:26.061Z,20.10
2019-06-08T03:52:56.475Z,19.07
2019-06-08T03:55:26.905Z,18.85
2019-06-08T03:57:59.529Z,19.15
2019-06-08T04:00:30.019Z,17.90
2019-06-08T04:03:00.455Z,18.50
2019-06-08T04:05:30.893Z,18.35
2019-06-08T04:08:01.263Z,18.62
2019-06-08T04:10:31.709Z,17.40
2019-06-08T04:13:02.085Z,17.62
2019-06-08T04:15:32.524Z,17.67
2019-06-08T04:18:02.889Z,15.85
2019-06-08T04:20:33.318Z,16.62
2019-06-08T04:23:03.705Z,18.52
2019-06-08T04:25:34.113Z,15.65
2019-06-08T04:28:04.552Z,14.58
2019-06-08T04:30:35.010Z,14.33
2019-06-08T04:33:05.481Z,13.90
2019-06-08T04:35:38.006Z,13.20
2019-06-08T04:38:08.182Z,13.35
2019-06-08T04:40:39.485Z,14.23
2019-06-08T04:43:10.650Z,13.72
2019-06-08T04:45:41.669Z,12.85
2019-06-08T04:48:13.059Z,12.80
2019-06-08T04:50:45.279Z,13.65
2019-06-08T04:53:15.749Z,13.08
2019-06-08T04:55:49.184Z,12.58
2019-06-08T05:00:50.850Z,11.93
2019-06-08T05:05:50.393Z,11.65
2019-06-08T05:08:22.130Z,10.85
2019-06-08T05:10:52.566Z,11.95
2019-06-08T05:13:22.996Z,10.70
2019-06-08T05:15:53.450Z,10.80
2019-06-08T05:18:26.086Z,10.38
2019-06-08T05:20:55.949Z,10.78
2019-06-08T05:23:26.366Z,10.98
2019-06-08T05:25:56.792Z,11.10
2019-06-08T05:28:27.225Z,10.13
2019-06-08T05:30:57.612Z,10.08
2019-06-08T05:33:28.034Z,9.13
2019-06-08T05:35:58.393Z,12.25
2019-06-08T05:38:28.838Z,9.75
2019-06-08T05:41:00.413Z,9.20
2019-06-08T05:43:30.849Z,9.15
2019-06-08T05:46:01.212Z,10.65
2019-06-08T05:48:31.722Z,9.33
2019-06-08T05:51:04.418Z,9.25
2019-06-08T05:56:04.553Z,8.35
2019-06-08T05:58:34.998Z,9.75
2019-06-08T06:01:05.576Z,9.38
2019-06-08T06:03:36.008Z,9.68
2019-06-08T06:06:06.429Z,9.15
2019-06-08T06:08:36.852Z,10.00
2019-06-08T06:11:07.276Z,9.55
2019-06-08T06:13:37.642Z,8.68
2019-06-08T06:16:08.126Z,8.95
2019-06-08T06:18:38.480Z,8.40
2019-06-08T06:21:11.715Z,8.78
2019-06-08T06:23:41.124Z,9.55
2019-06-08T06:26:11.778Z,8.43
2019-06-08T06:28:43.246Z,9.83
2019-06-08T06:31:14.145Z,9.33
2019-06-08T06:33:45.905Z,9.45
2019-06-08T06:36:16.743Z,9.38
2019-06-08T06:38:48.198Z,9.30
2019-06-08T06:43:48.508Z,9.38
2019-06-08T06:46:18.927Z,9.40
2019-06-08T06:48:50.351Z,10.08
2019-06-08T06:51:26.086Z,9.90
2019-06-08T06:53:53.349Z,8.63
2019-06-08T06:56:24.581Z,8.33
2019-06-08T06:58:55.037Z,10.30
2019-06-08T07:01:25.563Z,8.65
2019-06-08T07:03:56.118Z,9.55
2019-06-08T07:06:26.534Z,9.10
2019-06-08T07:08:56.958Z,8.63
2019-06-08T07:11:28.465Z,7.65
2019-06-08T07:13:58.910Z,7.25
2019-06-08T07:16:29.323Z,7.78
2019-06-08T07:18:59.729Z,7.65
2019-06-08T07:21:41.291Z,7.92
2019-06-08T07:24:02.236Z,7.12
2019-06-08T07:26:32.657Z,8.60
2019-06-08T07:29:03.069Z,7.42
2019-06-08T07:31:33.490Z,8.45
2019-06-08T07:34:04.024Z,8.73
2019-06-08T07:36:34.442Z,8.58
2019-06-08T07:39:07.585Z,9.05
2019-06-08T07:41:37.935Z,8.88
2019-06-08T07:44:08.353Z,8.15
2019-06-08T07:46:38.718Z,8.40
2019-06-08T07:49:09.179Z,10.13
2019-06-08T07:51:39.620Z,9.63
2019-06-08T07:54:10.051Z,9.18
2019-06-08T07:56:40.410Z,9.15
2019-06-08T07:59:10.826Z,8.88
2019-06-08T08:01:41.307Z,9.65
2019-06-08T08:04:11.779Z,9.20
2019-06-08T08:06:42.199Z,9.70
2019-06-08T08:09:12.626Z,8.45
2019-06-08T08:11:43.051Z,8.50
2019-06-08T08:14:13.425Z,8.25
2019-06-08T08:16:43.875Z,7.85
2019-06-08T08:19:14.227Z,8.95
2019-06-08T08:21:44.660Z,9.23
2019-06-08T08:24:17.259Z,9.35
2019-06-08T08:29:18.107Z,9.90
2019-06-08T08:31:50.310Z,10.32
2019-06-08T08:36:51.089Z,9.88
2019-06-08T08:41:56.326Z,10.25
2019-06-08T08:46:53.595Z,8.85
2019-06-08T08:51:54.140Z,11.03
2019-06-08T08:54:24.541Z,10.65
2019-06-08T08:56:57.173Z,9.90
2019-06-08T09:02:01.034Z,9.28
2019-06-08T09:07:05.304Z,10.23
2019-06-08T09:12:04.163Z,11.08
2019-06-08T09:17:03.505Z,10.13
2019-06-08T09:19:34.353Z,11.88
2019-06-08T09:22:04.834Z,13.40
2019-06-08T09:24:35.311Z,15.70
2019-06-08T09:27:08.052Z,11.75
2019-06-08T09:29:38.781Z,12.07
2019-06-08T09:32:09.781Z,11.45
2019-06-08T09:34:40.239Z,14.00
2019-06-08T09:37:10.615Z,13.13
2019-06-08T09:39:41.066Z,15.68
2019-06-08T09:42:11.417Z,14.85
2019-06-08T09:44:41.833Z,15.05
2019-06-08T09:47:12.870Z,16.85
2019-06-08T09:49:43.491Z,15.18
2019-06-08T09:52:13.864Z,13.68
2019-06-08T09:54:44.332Z,16.20
2019-06-08T09:57:14.775Z,15.45
2019-06-08T09:59:48.082Z,14.18
2019-06-08T10:04:48.637Z,13.93
2019-06-08T10:07:19.050Z,15.03
2019-06-08T10:09:50.115Z,15.03
2019-06-08T10:12:21.909Z,15.30
2019-06-08T10:14:52.359Z,16.95
2019-06-08T10:17:22.772Z,16.52
2019-06-08T10:19:54.549Z,16.90
2019-06-08T10:24:55.421Z,17.65
2019-06-08T10:29:59.990Z,16.25
2019-06-08T10:35:01.995Z,11.50
2019-06-08T10:37:31.098Z,9.03
2019-06-08T10:40:05.197Z,9.05
2019-06-08T10:42:34.804Z,9.98
2019-06-08T10:45:10.369Z,11.28
2019-06-08T10:47:39.641Z,13.50
2019-06-08T10:50:15.274Z,13.98
2019-06-08T10:52:44.430Z,14.23
2019-06-08T10:55:14.935Z,14.83
2019-06-08T10:57:47.619Z,14.83
2019-06-08T11:02:52.785Z,15.15
2019-06-08T11:05:23.203Z,13.60
2019-06-08T11:07:53.618Z,14.07
2019-06-08T11:10:24.055Z,13.45
2019-06-08T11:12:54.420Z,12.13
2019-06-08T11:15:29.190Z,10.95
2019-06-08T11:20:30.043Z,12.43
2019-06-08T11:25:31.097Z,7.25
2019-06-08T11:28:01.833Z,6.50
2019-06-08T11:30:32.841Z,7.50
2019-06-08T11:33:03.786Z,6.50
2019-06-08T11:35:35.431Z,7.10
2019-06-08T11:38:06.765Z,8.43
2019-06-08T11:43:08.617Z,8.85
2019-06-08T11:45:39.384Z,8.83
2019-06-08T11:48:10.863Z,10.23
2019-06-08T11:50:42.601Z,8.75
2019-06-08T11:53:14.773Z,8.45
2019-06-08T11:55:45.113Z,10.23
2019-06-08T11:58:22.197Z,9.10
2019-06-08T12:00:55.669Z,9.18
2019-06-08T12:03:27.729Z,9.90
2019-06-08T12:05:59.405Z,9.28
2019-06-08T12:08:29.813Z,9.60
2019-06-08T12:11:02.004Z,8.20
2019-06-08T12:16:02.954Z,8.60
2019-06-08T12:18:33.740Z,7.30
2019-06-08T12:21:05.504Z,7.55
2019-06-08T12:23:37.351Z,9.60
2019-06-08T12:26:08.207Z,8.23
2019-06-08T12:28:39.013Z,6.20
2019-06-08T12:31:14.102Z,6.20
2019-06-08T12:36:13.664Z,6.42
2019-06-08T12:41:13.922Z,6.87
2019-06-08T12:46:15.133Z,7.05
2019-06-08T12:51:16.429Z,7.53
2019-06-08T12:56:22.884Z,8.70
2019-06-08T13:01:18.950Z,8.08
2019-06-08T13:03:50.826Z,8.40
2019-06-08T13:06:21.165Z,8.35
2019-06-08T13:08:51.535Z,9.15
2019-06-08T13:11:21.965Z,10.05
2019-06-08T13:13:52.340Z,8.20
2019-06-08T13:16:24.310Z,9.33
2019-06-08T13:21:33.764Z,10.00
2019-06-08T13:26:28.455Z,8.63
2019-06-08T13:31:29.024Z,8.55
2019-06-08T13:33:59.559Z,8.83
2019-06-08T13:36:29.970Z,8.38
2019-06-08T13:39:00.389Z,8.33
2019-06-08T13:41:31.216Z,8.88
2019-06-08T13:44:01.626Z,9.58
2019-06-08T13:46:32.026Z,8.95
2019-06-08T13:49:02.441Z,8.08
2019-06-08T13:51:32.857Z,9.13
2019-06-08T13:54:03.315Z,8.48
2019-06-08T13:56:33.735Z,7.85
2019-06-08T13:59:04.155Z,7.62
2019-06-08T14:01:34.573Z,7.75
2019-06-08T14:04:05.269Z,7.70
2019-06-08T14:06:35.681Z,7.35
2019-06-08T14:09:08.723Z,6.58
2019-06-08T14:11:39.144Z,6.87
2019-06-08T14:14:09.501Z,7.30
2019-06-08T14:16:39.925Z,7.40
2019-06-08T14:19:10.277Z,6.28
2019-06-08T14:21:41.843Z,6.08
2019-06-08T14:24:12.465Z,5.67
2019-06-08T14:26:42.888Z,5.87
2019-06-08T14:29:13.289Z,5.58
2019-06-08T14:31:43.712Z,5.58
2019-06-08T14:34:14.122Z,6.15
2019-06-08T14:36:44.500Z,5.20
2019-06-08T14:39:14.936Z,6.20
2019-06-08T14:41:47.534Z,5.15
2019-06-08T14:46:48.318Z,6.10
2019-06-08T14:49:23.532Z,5.78
2019-06-08T14:54:26.005Z,5.20
2019-06-08T14:56:53.490Z,4.87
2019-06-08T14:59:24.228Z,4.72
2019-06-08T15:04:28.460Z,4.95
2019-06-08T15:09:29.749Z,4.70
2019-06-08T15:14:34.989Z,3.52
2019-06-08T15:17:01.958Z,3.67
2019-06-08T15:19:32.666Z,3.62
2019-06-08T15:22:03.380Z,3.47
2019-06-08T15:24:33.785Z,4.00
2019-06-08T15:27:04.541Z,3.87
2019-06-08T15:29:34.975Z,4.50
2019-06-08T15:32:08.123Z,4.28
2019-06-08T15:34:38.655Z,4.95
2019-06-08T15:37:09.429Z,3.83
2019-06-08T15:39:40.053Z,4.15
2019-06-08T15:42:10.538Z,4.40
2019-06-08T15:44:42.181Z,4.87
2019-06-08T15:47:14.353Z,3.87
2019-06-08T15:49:44.745Z,4.28
2019-06-08T15:52:17.408Z,4.33
2019-06-08T15:54:48.393Z,4.28
2019-06-08T15:57:18.996Z,4.03
2019-06-08T15:59:49.405Z,4.45
2019-06-08T16:02:19.786Z,4.70
2019-06-08T16:04:50.223Z,4.20
2019-06-08T16:07:20.654Z,3.95
2019-06-08T16:09:51.355Z,4.05
2019-06-08T16:12:21.827Z,4.90
2019-06-08T16:14:52.186Z,4.87
2019-06-08T16:17:22.594Z,4.33
2019-06-08T16:19:53.274Z,4.22
2019-06-08T16:22:24.086Z,4.65
2019-06-08T16:24:55.142Z,5.13
2019-06-08T16:27:25.770Z,4.35
2019-06-08T16:29:56.430Z,4.70
2019-06-08T16:32:27.394Z,4.92
2019-06-08T16:34:58.123Z,5.33
2019-06-08T16:37:29.484Z,5.42
2019-06-08T16:40:00.120Z,4.67
2019-06-08T16:42:30.536Z,4.20
2019-06-08T16:45:00.904Z,4.60
2019-06-08T16:47:31.329Z,5.08
2019-06-08T16:50:01.689Z,4.80
2019-06-08T16:52:32.483Z,5.17
2019-06-08T16:55:02.981Z,5.30
2019-06-08T16:57:37.566Z,4.90
2019-06-08T17:02:37.405Z,8.83
2019-06-08T17:05:07.952Z,6.37
2019-06-08T17:07:39.622Z,5.67
2019-06-08T17:10:11.302Z,5.83
2019-06-08T17:12:41.734Z,5.20
2019-06-08T17:15:12.469Z,5.67
2019-06-08T17:17:43.008Z,5.22
2019-06-08T17:20:14.668Z,5.75
2019-06-08T17:22:45.092Z,5.75
2019-06-08T17:25:15.749Z,4.78
2019-06-08T17:27:46.206Z,5.40
2019-06-08T17:30:16.880Z,5.33
2019-06-08T17:32:47.292Z,5.45
2019-06-08T17:35:17.692Z,5.20
2019-06-08T17:37:48.099Z,6.40
2019-06-08T17:40:18.741Z,5.60
2019-06-08T17:42:49.108Z,5.50
2019-06-08T17:45:20.037Z,5.40
2019-06-08T17:47:50.553Z,5.40
2019-06-08T17:50:21.108Z,5.62
2019-06-08T17:52:51.486Z,5.37
2019-06-08T17:55:21.907Z,6.22
2019-06-08T17:57:53.628Z,5.47
2019-06-08T18:00:24.832Z,5.60
2019-06-08T18:02:57.800Z,6.55
2019-06-08T18:07:58.427Z,5.92
2019-06-08T18:10:29.968Z,6.30
2019-06-08T18:13:00.378Z,6.08
2019-06-08T18:15:30.808Z,6.87
2019-06-08T18:18:01.245Z,7.87
2019-06-08T18:20:31.661Z,6.87
2019-06-08T18:23:02.070Z,6.75
2019-06-08T18:25:32.431Z,7.25
2019-06-08T18:28:10.317Z,7.03
2019-06-08T18:33:07.027Z,6.00
2019-06-08T18:35:39.260Z,7.60
2019-06-08T18:38:09.306Z,6.58
2019-06-08T18:40:41.999Z,6.78
2019-06-08T18:43:12.990Z,6.87
2019-06-08T18:45:44.598Z,6.40
2019-06-08T18:50:46.103Z,6.35
2019-06-08T18:53:19.224Z,6.33
2019-06-08T18:55:50.232Z,6.70
2019-06-08T18:58:25.051Z,6.67
2019-06-08T19:00:54.426Z,7.22
2019-06-08T19:03:24.781Z,7.08
2019-06-08T19:05:55.708Z,8.13
2019-06-08T19:08:27.825Z,7.45
2019-06-08T19:10:58.653Z,6.80
2019-06-08T19:13:29.132Z,7.40
2019-06-08T19:15:59.904Z,7.78
2019-06-08T19:18:30.485Z,7.12
2019-06-08T19:21:00.914Z,7.33
2019-06-08T19:23:31.271Z,7.75
2019-06-08T19:26:01.695Z,7.00
2019-06-08T19:28:36.192Z,7.97
2019-06-08T19:31:04.125Z,8.60
2019-06-08T19:33:34.473Z,8.25
2019-06-08T19:36:04.830Z,8.55
2019-06-08T19:38:35.274Z,8.18
2019-06-08T19:41:08.011Z,8.68
2019-06-08T19:43:39.024Z,8.88
2019-06-08T19:46:09.665Z,8.33
2019-06-08T19:48:42.734Z,7.90
2019-06-08T19:51:12.093Z,8.85
2019-06-08T19:53:46.205Z,8.70
2019-06-08T19:56:14.508Z,8.90
2019-06-08T19:58:56.034Z,9.13
2019-06-08T20:01:18.056Z,9.30
2019-06-08T20:03:49.125Z,8.58
2019-06-08T20:06:21.027Z,8.35
2019-06-08T20:08:51.619Z,9.60
2019-06-08T20:11:22.510Z,13.50
2019-06-08T20:13:53.707Z,11.88
2019-06-08T20:16:24.454Z,9.85
2019-06-08T20:18:54.857Z,8.38
2019-06-08T20:21:27.382Z,9.58
2019-06-08T20:23:58.500Z,8.70
2019-06-08T20:26:29.333Z,8.45
2019-06-08T20:29:12.209Z,8.23
2019-06-08T20:31:31.761Z,7.90
2019-06-08T20:34:02.120Z,7.53
2019-06-08T20:36:32.535Z,8.28
2019-06-08T20:39:02.902Z,9.98
2019-06-08T20:41:37.463Z,10.80
2019-06-08T20:44:08.537Z,9.28
2019-06-08T20:46:40.085Z,9.00
2019-06-08T20:49:10.444Z,7.55
2019-06-08T20:51:40.961Z,10.50
2019-06-08T20:54:11.349Z,8.75
2019-06-08T20:56:42.909Z,7.03
2019-06-08T20:59:28.754Z,7.80
2019-06-08T21:01:46.260Z,10.80
2019-06-08T21:04:18.188Z,8.98
2019-06-08T21:06:51.335Z,8.38
2019-06-08T21:09:22.143Z,9.70
2019-06-08T21:11:54.176Z,9.25
2019-06-08T21:14:27.206Z,7.83
2019-06-08T21:16:58.635Z,8.23
2019-06-08T21:19:28.748Z,7.97
2019-06-08T21:21:59.498Z,8.48
2019-06-08T21:24:30.139Z,8.28
2019-06-08T21:27:00.930Z,7.72
2019-06-08T21:29:47.071Z,7.40
2019-06-08T21:32:03.705Z,7.80
2019-06-08T21:34:34.080Z,8.45
2019-06-08T21:37:04.516Z,8.38
2019-06-08T21:39:39.023Z,9.25
2019-06-08T21:42:08.227Z,9.15
2019-06-08T21:44:38.628Z,9.15
2019-06-08T21:47:09.006Z,9.13
2019-06-08T21:49:39.448Z,9.15
2019-06-08T21:52:09.805Z,8.40
2019-06-08T21:54:40.249Z,8.23
2019-06-08T21:57:10.618Z,7.97
2019-06-08T21:59:41.050Z,8.48
2019-06-08T22:02:11.427Z,8.50
2019-06-08T22:04:41.834Z,7.50
2019-06-08T22:07:12.194Z,8.05
2019-06-08T22:09:42.608Z,7.70
2019-06-08T22:12:13.052Z,7.80
2019-06-08T22:14:43.425Z,7.75
2019-06-08T22:17:15.965Z,7.90
2019-06-08T22:19:47.462Z,8.10
2019-06-08T22:22:17.817Z,7.85
2019-06-08T22:24:48.291Z,7.75
2019-06-08T22:27:18.713Z,8.20
2019-06-08T22:29:49.131Z,8.18
2019-06-08T22:32:19.494Z,8.98
2019-06-08T22:34:51.443Z,9.40
2019-06-08T22:37:21.931Z,8.90
2019-06-08T22:39:53.154Z,9.83
2019-06-08T22:42:23.634Z,10.20
2019-06-08T22:44:57.731Z,8.20
2019-06-08T22:47:27.644Z,10.05
2019-06-08T22:50:00.251Z,10.00
2019-06-08T22:52:30.424Z,10.78
2019-06-08T22:55:05.198Z,9.55
2019-06-08T22:57:32.934Z,9.70
2019-06-08T23:00:16.273Z,9.43
2019-06-08T23:02:38.243Z,9.90
2019-06-08T23:05:09.352Z,10.18
2019-06-08T23:10:09.565Z,9.80
2019-06-08T23:12:40.000Z,9.58
2019-06-08T23:15:10.758Z,9.23
2019-06-08T23:17:41.187Z,9.88
2019-06-08T23:20:11.764Z,10.38
2019-06-08T23:22:42.191Z,10.10
2019-06-08T23:25:12.545Z,9.13
2019-06-08T23:27:42.970Z,9.75
2019-06-08T23:30:13.355Z,9.18
2019-06-08T23:32:43.778Z,9.38
2019-06-08T23:35:14.615Z,9.48
2019-06-08T23:37:45.036Z,8.88
2019-06-08T23:40:17.723Z,8.35
2019-06-08T23:45:18.253Z,9.15
2019-06-08T23:47:48.743Z,9.33
2019-06-08T23:50:19.368Z,8.88
2019-06-08T23:52:49.736Z,9.10
2019-06-08T23:55:20.169Z,9.40
2019-06-08T23:57:50.520Z,9.73
